createdAt,value
2019-04-03T00:00:04.366Z,6.1
2019-04-03T00:02:06.619Z,7.4
2019-04-03T00:04:08.058Z,5.8
2019-04-03T00:06:09.498Z,7.4
2019-04-03T00:08:10.862Z,5.8
2019-04-03T00:10:12.287Z,7.7
2019-04-03T00:12:13.653Z,6.3
2019-04-03T00:14:14.912Z,8.5
2019-04-03T00:16:16.289Z,6.3
2019-04-03T00:18:17.634Z,5.7
2019-04-03T00:20:19.053Z,6.2
2019-04-03T00:22:21.821Z,4.8
2019-04-03T00:24:23.641Z,5.7
2019-04-03T00:26:25.108Z,4.3
2019-04-03T00:28:26.519Z,6.1
2019-04-03T00:30:27.992Z,6.2
2019-04-03T00:32:29.401Z,5.8
2019-04-03T00:34:30.792Z,4.2
2019-04-03T00:36:32.214Z,5.5
2019-04-03T00:38:33.557Z,5.7
2019-04-03T00:40:34.910Z,5.8
2019-04-03T00:42:36.344Z,6.6
2019-04-03T00:44:37.791Z,4.8
2019-04-03T00:46:39.234Z,5.8
2019-04-03T00:48:40.732Z,5.4
2019-04-03T00:50:42.259Z,6.2
2019-04-03T00:52:43.672Z,6.8
2019-04-03T00:54:45.106Z,7.5
2019-04-03T00:56:46.605Z,5.5
2019-04-03T00:58:47.945Z,5.3
2019-04-03T01:00:49.364Z,5.4
2019-04-03T01:02:50.773Z,5.6
2019-04-03T01:04:52.121Z,7
2019-04-03T01:06:53.534Z,6.2
2019-04-03T01:08:55.102Z,7.2
2019-04-03T01:10:56.402Z,5.5
2019-04-03T01:12:57.826Z,6.4
2019-04-03T01:15:01.034Z,6.3
2019-04-03T01:17:04.454Z,7.1
2019-04-03T01:19:06.364Z,6.7
2019-04-03T01:21:07.785Z,5.7
2019-04-03T01:23:09.229Z,6
2019-04-03T01:25:10.578Z,5.5
2019-04-03T01:27:12.061Z,5.2
2019-04-03T01:29:13.513Z,6.2
2019-04-03T01:31:15.139Z,5.5
2019-04-03T01:33:17.014Z,5
2019-04-03T01:35:18.636Z,5.8
2019-04-03T01:37:20.070Z,5
2019-04-03T01:39:21.511Z,6.9
2019-04-03T01:41:22.944Z,5.1
2019-04-03T01:43:24.280Z,6.7
2019-04-03T01:45:26.276Z,6.9
2019-04-03T01:47:28.108Z,4.9
2019-04-03T01:49:29.644Z,5.4
2019-04-03T01:51:31.110Z,4.8
2019-04-03T01:53:33.000Z,5.8
2019-04-03T01:55:35.160Z,4.9
2019-04-03T01:57:37.093Z,7.3
2019-04-03T01:59:38.821Z,4.8
2019-04-03T02:01:40.163Z,5.4
2019-04-03T02:03:42.000Z,5.5
2019-04-03T02:05:44.086Z,5.9
2019-04-03T02:07:45.580Z,6.3
2019-04-03T02:09:47.206Z,4.7
2019-04-03T02:11:49.285Z,6.1
2019-04-03T02:13:51.698Z,6.3
2019-04-03T02:15:53.305Z,5.1
2019-04-03T02:17:55.218Z,4.9
2019-04-03T02:19:56.963Z,6.1
2019-04-03T02:21:59.095Z,6.7
2019-04-03T02:24:01.153Z,4.8
2019-04-03T02:26:03.153Z,5.1
2019-04-03T02:28:04.584Z,5.4
2019-04-03T02:30:06.230Z,5.3
2019-04-03T02:32:07.698Z,4.2
2019-04-03T02:34:09.075Z,6.9
2019-04-03T02:36:12.132Z,5
2019-04-03T02:38:14.790Z,5
2019-04-03T02:40:16.270Z,4.5
2019-04-03T02:42:18.099Z,5.7
2019-04-03T02:44:20.022Z,5.7
2019-04-03T02:46:21.557Z,7.5
2019-04-03T02:48:23.008Z,5.1
2019-04-03T02:50:24.437Z,6
2019-04-03T02:52:26.020Z,6.1
2019-04-03T02:54:27.425Z,4.7
2019-04-03T02:56:28.863Z,6
2019-04-03T02:58:30.256Z,6.8
2019-04-03T03:00:32.790Z,5.4
2019-04-03T03:02:35.204Z,5.1
2019-04-03T03:04:36.642Z,4.8
2019-04-03T03:06:38.081Z,5.7
2019-04-03T03:08:41.589Z,5.3
2019-04-03T03:10:44.054Z,6
2019-04-03T03:12:45.422Z,5.8
2019-04-03T03:14:47.017Z,6.1
2019-04-03T03:16:50.256Z,6.9
2019-04-03T03:18:52.488Z,5.1
2019-04-03T03:20:54.232Z,4.7
2019-04-03T03:22:55.683Z,5.1
2019-04-03T03:24:59.676Z,5.4
2019-04-03T03:27:02.992Z,6.2
2019-04-03T03:29:16.096Z,8.6
2019-04-03T03:31:35.322Z,6.5
2019-04-03T03:34:10.228Z,4.7
2019-04-03T03:36:18.832Z,6.5
2019-04-03T03:38:27.615Z,4.9
2019-04-03T03:40:30.268Z,4.6
2019-04-03T03:42:32.182Z,5.7
2019-04-03T03:44:34.068Z,6
2019-04-03T03:46:35.426Z,6.8
2019-04-03T03:48:36.865Z,5.3
2019-04-03T03:50:38.294Z,5.8
2019-04-03T03:52:39.776Z,7.1
2019-04-03T03:54:41.259Z,6.3
2019-04-03T03:56:42.832Z,6.8
2019-04-03T03:58:45.569Z,5.9
2019-04-03T04:00:51.642Z,6.2
2019-04-03T04:02:54.531Z,8.1
2019-04-03T04:04:55.924Z,5.3
2019-04-03T04:06:57.630Z,8.6
2019-04-03T04:08:59.095Z,7.3
2019-04-03T04:11:00.486Z,6.4
2019-04-03T04:13:01.907Z,7.7
2019-04-03T04:15:03.347Z,5.7
2019-04-03T04:17:08.303Z,5.8
2019-04-03T04:19:17.442Z,7.6
2019-04-03T04:21:19.031Z,8.1
2019-04-03T04:23:22.971Z,7.9
2019-04-03T04:25:28.088Z,8.4
2019-04-03T04:27:33.794Z,6.7
2019-04-03T04:29:41.006Z,9.7
2019-04-03T04:31:44.329Z,7.2
2019-04-03T04:33:47.597Z,8.6
2019-04-03T04:35:52.152Z,9.3
2019-04-03T04:37:55.848Z,8.1
2019-04-03T04:39:59.558Z,9.2
2019-04-03T04:42:03.350Z,7.9
2019-04-03T04:44:06.142Z,8.2
2019-04-03T04:46:09.151Z,7.8
2019-04-03T04:48:11.114Z,8.4
2019-04-03T04:50:12.701Z,7.2
2019-04-03T04:52:14.040Z,8.8
2019-04-03T04:54:15.479Z,8.4
2019-04-03T04:56:16.897Z,10.6
2019-04-03T04:58:18.261Z,8.3
2019-04-03T05:00:19.780Z,8
2019-04-03T05:02:21.326Z,8.4
2019-04-03T05:04:23.048Z,6.7
2019-04-03T05:06:28.459Z,7.9
2019-04-03T05:08:32.589Z,7.3
2019-04-03T05:10:36.583Z,6.2
2019-04-03T05:12:39.368Z,9.5
2019-04-03T05:14:46.805Z,8
2019-04-03T05:16:50.811Z,8
2019-04-03T05:18:52.150Z,7.5
2019-04-03T05:20:53.589Z,8
2019-04-03T05:22:55.668Z,7.7
2019-04-03T05:24:58.841Z,6.3
2019-04-03T05:27:03.233Z,9
2019-04-03T05:29:05.058Z,6.1
2019-04-03T05:31:08.032Z,6.8
2019-04-03T05:33:11.143Z,6.6
2019-04-03T05:35:14.786Z,7.8
2019-04-03T05:37:18.000Z,5.9
2019-04-03T05:39:23.878Z,7.7
2019-04-03T05:41:28.318Z,7.1
2019-04-03T05:43:30.790Z,8.4
2019-04-03T05:45:34.401Z,6.9
2019-04-03T05:47:39.171Z,7.7
2019-04-03T05:49:41.270Z,8.5
2019-04-03T05:51:42.613Z,7.4
2019-04-03T05:53:44.051Z,8.1
2019-04-03T05:55:45.462Z,7.1
2019-04-03T05:57:46.783Z,9.6
2019-04-03T05:59:58.499Z,8.7
2019-04-03T06:02:13.730Z,7.9
2019-04-03T06:04:21.357Z,8
2019-04-03T06:06:22.746Z,9.1
2019-04-03T06:08:24.168Z,7.7
2019-04-03T06:10:27.572Z,7.6
2019-04-03T06:12:31.186Z,7.5
2019-04-03T06:14:32.535Z,9.6
2019-04-03T06:16:33.875Z,9.9
2019-04-03T06:18:35.457Z,8.6
2019-04-03T06:20:36.871Z,7.4
2019-04-03T06:22:38.257Z,6.7
2019-04-03T06:24:39.671Z,7.7
2019-04-03T06:26:42.607Z,6.5
2019-04-03T06:28:47.390Z,9.1
2019-04-03T06:30:49.437Z,8
2019-04-03T06:32:50.882Z,6.8
2019-04-03T06:34:52.225Z,7.2
2019-04-03T06:36:53.660Z,8.9
2019-04-03T06:38:56.030Z,7.7
2019-04-03T06:40:58.838Z,6.4
2019-04-03T06:43:00.182Z,9.5
2019-04-03T06:45:01.613Z,8.9
2019-04-03T06:47:03.029Z,7
2019-04-03T06:49:04.618Z,9
2019-04-03T06:51:09.764Z,8.7
2019-04-03T06:53:11.157Z,7
2019-04-03T06:55:12.746Z,7.5
2019-04-03T06:57:14.537Z,8.7
2019-04-03T06:59:16.466Z,7.2
2019-04-03T07:01:20.149Z,7.3
2019-04-03T07:03:22.608Z,7.2
2019-04-03T07:05:27.220Z,6.7
2019-04-03T07:07:33.694Z,7.5
2019-04-03T07:09:37.311Z,8.3
2019-04-03T07:11:38.756Z,7
2019-04-03T07:13:40.392Z,8.5
2019-04-03T07:15:41.742Z,8
2019-04-03T07:17:43.083Z,8
2019-04-03T07:19:44.522Z,8.5
2019-04-03T07:21:45.959Z,7.1
2019-04-03T07:23:47.399Z,6.5
2019-04-03T07:25:48.880Z,6.5
2019-04-03T07:27:50.286Z,7
2019-04-03T07:29:51.786Z,10.2
2019-04-03T07:31:54.788Z,7.6
2019-04-03T07:33:57.464Z,9
2019-04-03T07:36:02.729Z,8.2
2019-04-03T07:38:04.069Z,6.4
2019-04-03T07:40:05.500Z,7.5
2019-04-03T07:42:06.848Z,8
2019-04-03T07:44:08.243Z,8.7
2019-04-03T07:46:09.513Z,7.6
2019-04-03T07:48:10.950Z,10.7
2019-04-03T07:50:12.393Z,7.3
2019-04-03T07:52:14.988Z,9.1
2019-04-03T07:54:19.927Z,8.4
2019-04-03T07:56:25.787Z,8.2
2019-04-03T07:58:30.485Z,7.4
2019-04-03T08:00:33.933Z,8.6
2019-04-03T08:02:35.376Z,9.2
2019-04-03T08:04:36.775Z,7.5
2019-04-03T08:06:38.196Z,8.2
2019-04-03T08:08:39.612Z,8.4
2019-04-03T08:10:41.073Z,8.2
2019-04-03T08:12:42.409Z,7.9
2019-04-03T08:14:44.141Z,7.7
2019-04-03T08:16:45.852Z,7.3
2019-04-03T08:18:51.710Z,8.6
2019-04-03T08:20:55.008Z,7.9
2019-04-03T08:22:59.908Z,8.2
2019-04-03T08:25:01.321Z,7.1
2019-04-03T08:27:02.676Z,7.8
2019-04-03T08:29:04.113Z,7.4
2019-04-03T08:31:05.594Z,7.9
2019-04-03T08:33:15.648Z,6.9
2019-04-03T08:35:23.280Z,8.2
2019-04-03T08:37:30.083Z,7.5
2019-04-03T08:39:34.016Z,6.4
2019-04-03T08:41:37.299Z,7.3
2019-04-03T08:43:39.305Z,7.7
2019-04-03T08:45:40.742Z,7.1
2019-04-03T08:47:44.481Z,8.1
2019-04-03T08:49:47.916Z,6.5
2019-04-03T08:51:49.300Z,6.8
2019-04-03T08:53:52.532Z,9.2
2019-04-03T08:55:56.616Z,7.4
2019-04-03T08:57:58.118Z,7.1
2019-04-03T09:00:00.255Z,7
2019-04-03T09:02:03.091Z,6.7
2019-04-03T09:04:04.662Z,7.9
2019-04-03T09:06:06.090Z,6.4
2019-04-03T09:08:07.668Z,6
2019-04-03T09:10:09.070Z,6.9
2019-04-03T09:12:10.517Z,7.7
2019-04-03T09:14:11.860Z,6.7
2019-04-03T09:16:13.303Z,6.6
2019-04-03T09:18:14.741Z,5.5
2019-04-03T09:20:16.269Z,6.9
2019-04-03T09:22:20.799Z,6.2
2019-04-03T09:24:23.908Z,5.3
2019-04-03T09:26:25.441Z,7.4
2019-04-03T09:28:26.773Z,6.1
2019-04-03T09:30:28.118Z,5.9
2019-04-03T09:32:29.554Z,6.4
2019-04-03T09:34:33.681Z,7.2
2019-04-03T09:36:36.324Z,7.6
2019-04-03T09:38:39.231Z,5.6
2019-04-03T09:40:43.296Z,6.1
2019-04-03T09:42:44.660Z,6.4
2019-04-03T09:44:46.027Z,6.2
2019-04-03T09:46:47.407Z,6
2019-04-03T09:48:48.970Z,6.4
2019-04-03T09:50:50.338Z,6.4
2019-04-03T09:52:53.983Z,6.7
2019-04-03T09:54:58.202Z,5.6
2019-04-03T09:57:04.826Z,6.6
2019-04-03T09:59:07.944Z,6.7
2019-04-03T10:01:09.642Z,6
2019-04-03T10:03:10.986Z,6.9
2019-04-03T10:05:12.425Z,8.4
2019-04-03T10:07:14.102Z,9.9
2019-04-03T10:09:15.478Z,7.2
2019-04-03T10:11:19.481Z,6.1
2019-04-03T10:13:24.751Z,8.3
2019-04-03T10:15:29.002Z,8
2019-04-03T10:17:33.442Z,6.1
2019-04-03T10:19:34.862Z,6.7
2019-04-03T10:21:36.437Z,7.1
2019-04-03T10:23:37.794Z,6.5
2019-04-03T10:25:39.237Z,7.5
2019-04-03T10:27:42.868Z,8
2019-04-03T10:29:45.432Z,7.4
2019-04-03T10:31:46.814Z,7
2019-04-03T10:33:48.157Z,8.5
2019-04-03T10:35:49.516Z,7.9
2019-04-03T10:37:50.957Z,8
2019-04-03T10:39:52.701Z,11.5
2019-04-03T10:41:55.238Z,8.2
2019-04-03T10:43:56.958Z,9.6
2019-04-03T10:45:58.468Z,10
2019-04-03T10:48:00.018Z,9.8
2019-04-03T10:50:02.182Z,9.4
2019-04-03T10:52:06.691Z,9.8
2019-04-03T10:54:08.035Z,9.8
2019-04-03T10:56:09.475Z,8.9
2019-04-03T10:58:10.861Z,8.5
2019-04-03T11:00:12.310Z,8.3
2019-04-03T11:02:13.736Z,9.3
2019-04-03T11:04:15.392Z,8.8
2019-04-03T11:06:16.936Z,9.2
2019-04-03T11:08:18.384Z,9.3
2019-04-03T11:10:19.928Z,8.7
2019-04-03T11:12:21.343Z,9.4
2019-04-03T11:14:22.699Z,9.1
2019-04-03T11:16:24.151Z,11.3
2019-04-03T11:18:25.548Z,8
2019-04-03T11:20:27.316Z,9
2019-04-03T11:22:39.577Z,9.5
2019-04-03T11:24:44.128Z,9
2019-04-03T11:26:45.549Z,8.5
2019-04-03T11:28:47.018Z,7.9
2019-04-03T11:30:49.150Z,10.4
2019-04-03T11:32:54.271Z,7.7
2019-04-03T11:34:55.702Z,8.6
2019-04-03T11:36:59.568Z,10
2019-04-03T11:39:12.211Z,10.3
2019-04-03T11:41:19.221Z,10.3
2019-04-03T11:43:22.993Z,9.1
2019-04-03T11:45:24.447Z,8.9
2019-04-03T11:47:25.856Z,7.8
2019-04-03T11:49:27.205Z,8.3
2019-04-03T11:51:29.524Z,7.7
2019-04-03T11:53:32.982Z,8.2
2019-04-03T11:55:37.239Z,7.4
2019-04-03T11:57:38.619Z,7.1
2019-04-03T11:59:40.263Z,6.8
2019-04-03T12:01:41.590Z,6.3
2019-04-03T12:03:42.976Z,7.3
2019-04-03T12:05:45.703Z,7.4
2019-04-03T12:07:49.527Z,7.6
2019-04-03T12:09:50.900Z,6.6
2019-04-03T12:11:54.445Z,6.8
2019-04-03T12:13:57.258Z,6.1
2019-04-03T12:15:58.873Z,6.3
2019-04-03T12:18:01.090Z,8
2019-04-03T12:20:04.246Z,9
2019-04-03T12:22:05.665Z,9.2
2019-04-03T12:24:07.165Z,8.3
2019-04-03T12:26:08.961Z,7.2
2019-04-03T12:28:14.082Z,11.2
2019-04-03T12:30:15.622Z,7
2019-04-03T12:32:17.211Z,7.3
2019-04-03T12:34:18.608Z,9.1
2019-04-03T12:36:20.258Z,7.7
2019-04-03T12:38:22.414Z,7.8
2019-04-03T12:40:24.769Z,4.4
2019-04-03T12:42:26.202Z,3.8
2019-04-03T12:44:28.053Z,3.9
2019-04-03T12:46:31.017Z,3.4
2019-04-03T12:48:35.444Z,3.5
2019-04-03T12:50:36.918Z,2.6
2019-04-03T12:52:38.624Z,2.3
2019-04-03T12:54:40.063Z,2.6
2019-04-03T12:56:41.549Z,3.3
2019-04-03T12:58:43.164Z,2.5
2019-04-03T13:00:46.075Z,2.5
2019-04-03T13:02:50.043Z,3.3
2019-04-03T13:04:54.200Z,2.7
2019-04-03T13:06:55.633Z,2.8
2019-04-03T13:08:57.110Z,4
2019-04-03T13:10:58.551Z,4.3
2019-04-03T13:12:59.900Z,5.3
2019-04-03T13:15:01.960Z,4.6
2019-04-03T13:17:07.072Z,3.6
2019-04-03T13:19:08.420Z,3.9
2019-04-03T13:21:09.937Z,11.4
2019-04-03T13:23:13.266Z,4.9
2019-04-03T13:25:19.642Z,7.6
2019-04-03T13:27:22.987Z,4.4
2019-04-03T13:29:24.426Z,4.1
2019-04-03T13:31:26.272Z,4.4
2019-04-03T13:33:27.749Z,4.4
2019-04-03T13:35:29.151Z,6.2
2019-04-03T13:37:30.742Z,10
2019-04-03T13:39:33.214Z,13
2019-04-03T13:41:36.066Z,8
2019-04-03T13:43:37.432Z,5
2019-04-03T13:45:39.253Z,4.9
2019-04-03T13:47:41.972Z,5.3
2019-04-03T13:49:49.997Z,8.3
2019-04-03T13:51:52.761Z,10.7
2019-04-03T13:53:54.514Z,24.1
2019-04-03T13:55:55.930Z,12.3
2019-04-03T13:57:57.361Z,10.4
2019-04-03T14:00:01.608Z,7.2
2019-04-03T14:02:17.633Z,5.3
2019-04-03T14:04:19.890Z,23.4
2019-04-03T14:06:24.638Z,15.3
2019-04-03T14:08:26.676Z,10.3
2019-04-03T14:10:28.500Z,7.4
2019-04-03T14:12:29.960Z,7.2
2019-04-03T14:14:31.651Z,5.7
2019-04-03T14:16:34.270Z,6.9
2019-04-03T14:18:39.744Z,6.2
2019-04-03T14:20:42.795Z,5.2
2019-04-03T14:22:44.218Z,6
2019-04-03T14:24:49.911Z,5.8
2019-04-03T14:26:54.278Z,5.7
2019-04-03T14:28:55.802Z,4.9
2019-04-03T14:30:57.162Z,5.2
2019-04-03T14:32:58.579Z,6.1
2019-04-03T14:35:05.839Z,5.1
2019-04-03T14:37:42.226Z,5.1
2019-04-03T14:39:44.030Z,5.3
2019-04-03T14:41:45.456Z,5.8
2019-04-03T14:43:47.211Z,5.8
2019-04-03T14:45:48.669Z,5.7
2019-04-03T14:47:50.083Z,4.8
2019-04-03T14:49:51.658Z,6.1
2019-04-03T14:51:53.067Z,6.2
2019-04-03T14:53:54.575Z,8.3
2019-04-03T14:55:56.248Z,7.2
2019-04-03T14:58:01.261Z,7
2019-04-03T15:00:05.375Z,7.9
2019-04-03T15:02:28.224Z,6.8
2019-04-03T15:04:31.627Z,7.3
2019-04-03T15:06:37.932Z,7.8
2019-04-03T15:08:39.303Z,9.3
2019-04-03T15:10:40.742Z,8.1
2019-04-03T15:12:42.290Z,8.1
2019-04-03T15:14:43.827Z,6.7
2019-04-03T15:16:45.501Z,5.6
2019-04-03T15:18:46.815Z,6.3
2019-04-03T15:20:49.199Z,6.5
2019-04-03T15:22:52.296Z,5.5
2019-04-03T15:24:54.237Z,8.2
2019-04-03T15:26:55.677Z,8.5
2019-04-03T15:28:57.112Z,7.8
2019-04-03T15:30:58.421Z,7.6
2019-04-03T15:33:00.167Z,6.5
2019-04-03T15:35:01.750Z,7.5
2019-04-03T15:37:03.356Z,8.1
2019-04-03T15:39:04.793Z,8.1
2019-04-03T15:41:06.185Z,9.5
2019-04-03T15:43:22.607Z,8.2
2019-04-03T15:45:25.235Z,8.2
2019-04-03T15:47:34.874Z,7.9
2019-04-03T15:49:43.206Z,7.5
2019-04-03T15:51:44.576Z,7.8
2019-04-03T15:53:45.993Z,8
2019-04-03T15:55:47.975Z,7.3
2019-04-03T15:57:51.651Z,7.5
2019-04-03T15:59:55.089Z,9.3
2019-04-03T16:01:56.487Z,8.5
2019-04-03T16:03:59.029Z,8.3
2019-04-03T16:06:03.442Z,7.6
2019-04-03T16:08:06.515Z,9
2019-04-03T16:10:08.360Z,10.4
2019-04-03T16:12:09.739Z,8.4
2019-04-03T16:14:11.454Z,8.7
2019-04-03T16:16:12.896Z,8.1
2019-04-03T16:18:14.614Z,8.2
2019-04-03T16:20:16.963Z,9.6
2019-04-03T16:22:19.568Z,7.2
2019-04-03T16:24:21.103Z,7.5
2019-04-03T16:26:23.753Z,8.7
2019-04-03T16:28:26.902Z,9.6
2019-04-03T16:30:28.544Z,7.8
2019-04-03T16:32:29.937Z,9.1
2019-04-03T16:34:31.246Z,8.4
2019-04-03T16:36:32.651Z,7.7
2019-04-03T16:38:35.835Z,7.9
2019-04-03T16:40:38.824Z,9.1
2019-04-03T16:42:40.917Z,10.4
2019-04-03T16:44:42.257Z,9.3
2019-04-03T16:46:43.698Z,8.7
2019-04-03T16:48:45.452Z,8.9
2019-04-03T16:50:46.875Z,9.2
2019-04-03T16:52:48.725Z,8.7
2019-04-03T16:54:50.152Z,11
2019-04-03T16:56:51.822Z,8.4
2019-04-03T16:58:53.420Z,10.3
2019-04-03T17:00:55.076Z,9.5
2019-04-03T17:02:57.049Z,11
2019-04-03T17:04:58.502Z,10.7
2019-04-03T17:06:59.912Z,10.3
2019-04-03T17:09:15.890Z,8.9
2019-04-03T17:11:17.260Z,10.9
2019-04-03T17:13:20.826Z,8.4
2019-04-03T17:15:22.836Z,9.6
2019-04-03T17:17:24.113Z,9
2019-04-03T17:19:25.552Z,7.5
2019-04-03T17:21:27.621Z,7.7
2019-04-03T17:23:37.782Z,6.9
2019-04-03T17:25:47.173Z,6.6
2019-04-03T17:27:56.343Z,6.5
2019-04-03T17:30:01.097Z,7.8
2019-04-03T17:32:02.599Z,6
2019-04-03T17:34:05.814Z,7.6
2019-04-03T17:36:09.576Z,6.3
2019-04-03T17:38:11.012Z,6
2019-04-03T17:40:12.455Z,5.6
2019-04-03T17:42:13.853Z,5.4
2019-04-03T17:44:15.187Z,5.1
2019-04-03T17:46:17.635Z,4.7
2019-04-03T17:48:19.619Z,5.4
2019-04-03T17:50:20.880Z,5.8
2019-04-03T17:52:22.251Z,5
2019-04-03T17:54:23.639Z,4.4
2019-04-03T17:56:25.012Z,4.2
2019-04-03T17:58:26.447Z,3.8
2019-04-03T18:00:27.882Z,3.6
2019-04-03T18:02:29.641Z,3.9
2019-04-03T18:04:31.165Z,3.9
2019-04-03T18:06:46.825Z,4.4
2019-04-03T18:08:48.793Z,5.4
2019-04-03T18:10:50.342Z,4.8
2019-04-03T18:12:52.285Z,5.2
2019-04-03T18:14:55.664Z,3.8
2019-04-03T18:17:01.080Z,4.2
2019-04-03T18:19:04.826Z,4.5
2019-04-03T18:21:06.876Z,5
2019-04-03T18:23:10.544Z,4.4
2019-04-03T18:25:12.244Z,4.1
2019-04-03T18:27:13.676Z,4.7
2019-04-03T18:29:15.141Z,3.2
2019-04-03T18:31:16.481Z,3.7
2019-04-03T18:33:17.900Z,2.5
2019-04-03T18:35:19.271Z,2.1
2019-04-03T18:37:20.678Z,3.1
2019-04-03T18:39:22.017Z,2.1
2019-04-03T18:41:23.451Z,3.4
2019-04-03T18:43:24.842Z,2.9
2019-04-03T18:45:26.350Z,1.9
2019-04-03T18:47:35.343Z,1.8
2019-04-03T18:49:43.333Z,3.8
2019-04-03T18:51:44.735Z,2.2
2019-04-03T18:53:46.105Z,1.9
2019-04-03T18:55:47.487Z,1.9
2019-04-03T18:57:50.174Z,0.9
2019-04-03T18:59:51.899Z,1.1
2019-04-03T19:01:53.348Z,0.8
2019-04-03T19:03:54.764Z,0.8
2019-04-03T19:05:56.201Z,2.1
2019-04-03T19:07:57.635Z,0.7
2019-04-03T19:10:06.732Z,1.8
2019-04-03T19:12:12.513Z,1.1
2019-04-03T19:14:26.434Z,0.6
2019-04-03T19:16:43.496Z,1.4
2019-04-03T19:18:52.672Z,1
2019-04-03T19:20:54.068Z,0.6
2019-04-03T19:23:02.223Z,0.6
2019-04-03T19:25:06.323Z,0.5
2019-04-03T19:27:07.763Z,1.4
2019-04-03T19:29:09.189Z,0.7
2019-04-03T19:31:10.736Z,1.1
2019-04-03T19:33:13.915Z,0.7
2019-04-03T19:35:16.215Z,1.5
2019-04-03T19:37:17.550Z,0.5
2019-04-03T19:39:18.917Z,0.9
2019-04-03T19:41:20.257Z,0.6
2019-04-03T19:43:21.988Z,0.8
2019-04-03T19:45:23.428Z,0.5
2019-04-03T19:47:25.133Z,1.2
2019-04-03T19:49:28.068Z,0.6
2019-04-03T19:51:29.613Z,1.5
2019-04-03T19:53:31.037Z,1.3
2019-04-03T19:55:32.469Z,1.9
2019-04-03T19:57:33.900Z,1.5
2019-04-03T19:59:35.331Z,2
2019-04-03T20:01:38.631Z,1.2
2019-04-03T20:03:40.894Z,1.9
2019-04-03T20:05:43.848Z,2.2
2019-04-03T20:07:45.604Z,1.8
2019-04-03T20:09:46.879Z,1.2
2019-04-03T20:11:48.135Z,1.4
2019-04-03T20:13:49.515Z,2
2019-04-03T20:15:53.607Z,1.2
2019-04-03T20:17:56.008Z,1.2
2019-04-03T20:19:57.834Z,1.8
2019-04-03T20:21:59.774Z,1.2
2019-04-03T20:24:01.212Z,1.3
2019-04-03T20:26:04.593Z,1.9
2019-04-03T20:28:06.548Z,1.6
2019-04-03T20:30:08.028Z,1.1
2019-04-03T20:32:09.467Z,1.5
2019-04-03T20:34:12.547Z,1.4
2019-04-03T20:36:16.606Z,1.7
2019-04-03T20:38:21.508Z,1.2
2019-04-03T20:40:22.842Z,1.3
2019-04-03T20:42:24.180Z,2.5
2019-04-03T20:50:06.900Z,1.2
2019-04-03T20:52:11.430Z,1.2
2019-04-03T20:54:13.021Z,1.5
2019-04-03T20:56:14.446Z,2.2
2019-04-03T20:58:15.891Z,1.9
2019-04-03T21:00:18.398Z,1.5
2019-04-03T21:02:21.497Z,2
2019-04-03T21:04:23.071Z,3
2019-04-03T21:06:24.885Z,1.9
2019-04-03T21:08:31.408Z,2
2019-04-03T21:10:33.213Z,2.3
2019-04-03T21:12:35.767Z,2.4
2019-04-03T21:14:39.566Z,2.2
2019-04-03T21:16:43.442Z,1.4
2019-04-03T21:18:45.285Z,1.4
2019-04-03T21:20:48.849Z,1.6
2019-04-03T21:22:57.037Z,2
2019-04-03T21:24:58.444Z,1.9
2019-04-03T21:27:00.742Z,1.9
2019-04-03T21:29:09.955Z,1.4
2019-04-03T21:31:11.392Z,1.8
2019-04-03T21:33:12.897Z,1.7
2019-04-03T21:35:15.436Z,1.9
2019-04-03T21:37:16.836Z,2.7
2019-04-03T21:39:18.258Z,2.4
2019-04-03T21:41:20.664Z,2.3
2019-04-03T21:43:22.709Z,2.3
2019-04-03T21:45:24.080Z,2.6
2019-04-03T21:47:25.504Z,2.6
2019-04-03T21:49:26.942Z,2.5
2019-04-03T21:51:28.378Z,2.8
2019-04-03T21:53:29.793Z,3
2019-04-03T21:55:31.491Z,3.4
2019-04-03T21:57:38.253Z,3.4
2019-04-03T21:59:41.687Z,3.5
2019-04-03T22:01:45.201Z,3.4
2019-04-03T22:03:50.399Z,4.4
2019-04-03T22:05:55.620Z,3.5
2019-04-03T22:07:58.243Z,3.7
2019-04-03T22:10:01.862Z,3.7
2019-04-03T22:12:05.869Z,3.4
2019-04-03T22:14:10.617Z,3.8
2019-04-03T22:16:13.370Z,3.7
2019-04-03T22:18:14.730Z,3.9
2019-04-03T22:20:16.025Z,4
2019-04-03T22:22:17.392Z,3.7
2019-04-03T22:24:18.768Z,4
2019-04-03T22:26:20.155Z,3.5
2019-04-03T22:28:21.535Z,4.4
2019-04-03T22:30:22.825Z,4
2019-04-03T22:32:24.813Z,5.1
2019-04-03T22:34:27.937Z,3.7
2019-04-03T22:36:33.311Z,4.6
2019-04-03T22:38:37.141Z,4.2
2019-04-03T22:40:40.577Z,4.4
2019-04-03T22:42:45.316Z,4.7
2019-04-03T22:44:48.277Z,4.7
2019-04-03T22:46:49.903Z,4.6
2019-04-03T22:48:51.238Z,5.3
2019-04-03T22:50:52.590Z,4.9
2019-04-03T22:52:54.021Z,3.9
2019-04-03T22:54:55.452Z,4.9
2019-04-03T22:56:56.878Z,5
2019-04-03T22:58:58.212Z,5.3
2019-04-03T23:00:59.761Z,4.9
2019-04-03T23:03:02.804Z,5.3
2019-04-03T23:05:04.857Z,4.8
2019-04-03T23:07:06.292Z,5.3
2019-04-03T23:09:07.714Z,5.6
2019-04-03T23:11:09.083Z,4
2019-04-03T23:13:10.516Z,5.2
2019-04-03T23:15:11.852Z,4.6
2019-04-03T23:17:13.894Z,4.1
2019-04-03T23:19:17.834Z,5
2019-04-03T23:21:20.050Z,4.9
2019-04-03T23:23:21.378Z,4.4
2019-04-03T23:25:22.756Z,5.2
2019-04-03T23:27:24.087Z,9.4
2019-04-03T23:29:25.429Z,8.4
2019-04-03T23:31:26.858Z,12
2019-04-03T23:33:28.198Z,5.4
2019-04-03T23:35:29.628Z,4.7
2019-04-03T23:37:31.042Z,4.8
2019-04-03T23:39:32.316Z,5.7
2019-04-03T23:41:36.267Z,6.2
2019-04-03T23:43:39.476Z,5.4
2019-04-03T23:45:43.509Z,5
2019-04-03T23:47:46.958Z,5.9
2019-04-03T23:49:50.736Z,5.8
2019-04-03T23:51:53.063Z,5.5
2019-04-03T23:53:54.471Z,5.1
2019-04-03T23:57:57.196Z,5.6
2019-04-03T23:59:58.492Z,6.6
